Kankakee, IL

2:03 PM CDT on July 26, 2017 (GMT -0500)
Greater Kankakee

Weather History for KIKK - January, 2014

Change the Weather History Date:

Monday, January 13, 2014

  Actual Average Record
Temperature  
Mean Temperature 37 °F -  
Max Temperature 46 °F 27 °F 51 °F (2005)
Min Temperature 28 °F 11 °F -10 °F (1974)
Degree Days  
Heating Degree Days 28    
Moisture  
Dew Point 33 °F    
Average Humidity 81    
Maximum Humidity 92    
Minimum Humidity 71    
Precipitation  
Precipitation 0.00 in - - ()
Sea Level Pressure  
Sea Level Pressure 29.66 in    
Wind  
Wind Speed 15 mph (WSW)    
Max Wind Speed 23 mph    
Max Gust Speed 29 mph    
Visibility 10 miles    
Events      
Averages and records for this station are not official NWS values.
T = Trace of Precipitation, MM = Missing Value Source: NWS Daily Summary

Daily Weather History Graph

Daily Weather History Graph

Search for Another Location

Airport or City:

Trip Planner

Search our weather history database for the weather conditions in past years. The results will help you decide how hot, cold, wet, or windy it might be!

Date:

Astronomy

Jan. 13, 2014 Rise Set
Actual Time 7:15 AM CST 4:45 PM CST
Civil Twilight 6:44 AM CST 5:15 PM CST
Nautical Twilight 6:10 AM CST 5:50 PM CST
Astronomical Twilight 5:37 AM CST 6:23 PM CST
Moon 3:00 PM CST (1/13) 5:03 AM CST (1/13)
Length of Visible Light 10h 31m
Length of Day
9h 30m
Waxing Gibbous, 95% of the Moon is Illuminated
Jan 13
Waxing Gibbous
Jan 15
Full
Jan 23
Last Quarter
Jan 30
New
Feb 6
First Quarter

Hourly Weather History & Observations

Time (CST) Temp. Windchill Dew Point Humidity Pressure Visibility Wind Dir Wind Speed Gust Speed Precip Events Conditions
12:15 AM 39.6 °F 29.7 °F 32.5 °F 76% 29.63 in 10.0 mi South 20.7 mph 26.5 mph N/A   Clear
12:35 AM 39.6 °F 30.0 °F 32.5 °F 76% 29.63 in 10.0 mi South 19.6 mph 26.5 mph N/A   Clear
12:55 AM 39.7 °F 30.0 °F 32.9 °F 77% 29.63 in 10.0 mi South 20.7 mph 26.5 mph N/A   Clear
1:15 AM 40.3 °F 30.2 °F 32.9 °F 75% 29.62 in 10.0 mi South 23.0 mph 27.6 mph N/A   Clear
1:35 AM 40.3 °F 31.3 °F 32.9 °F 75% 29.62 in 10.0 mi South 18.4 mph 28.8 mph N/A   Clear
1:55 AM 40.5 °F 31.5 °F 32.9 °F 74% 29.62 in 10.0 mi South 18.4 mph 26.5 mph N/A   Clear
2:15 AM 41.2 °F 32.4 °F 33.1 °F 73% 29.62 in 10.0 mi South 18.4 mph 25.3 mph N/A   Clear
2:35 AM 41.0 °F 32.5 °F 33.1 °F 73% 29.62 in 10.0 mi South 17.3 mph 21.9 mph N/A   Clear
2:55 AM 41.2 °F 32.1 °F 33.4 °F 74% 29.61 in 10.0 mi South 19.6 mph 23.0 mph N/A   Clear
3:15 AM 41.2 °F 32.7 °F 33.4 °F 74% 29.61 in 10.0 mi South 17.3 mph 24.2 mph N/A   Clear
3:35 AM 40.6 °F 31.7 °F 33.3 °F 75% 29.60 in 10.0 mi South 18.4 mph 23.0 mph N/A   Clear
3:55 AM 41.0 °F 32.2 °F 33.3 °F 74% 29.60 in 10.0 mi South 18.4 mph 24.2 mph N/A   Clear
4:15 AM 41.0 °F 32.2 °F 33.3 °F 74% 29.59 in 10.0 mi South 18.4 mph 25.3 mph N/A   Clear
4:35 AM 40.6 °F 32.7 °F 33.3 °F 75% 29.59 in 10.0 mi South 15.0 mph - N/A   Clear
4:55 AM 39.0 °F 30.6 °F 33.1 °F 79% 29.59 in 10.0 mi South 15.0 mph - N/A   Clear
5:15 AM 38.5 °F 28.9 °F 33.1 °F 81% 29.59 in 10.0 mi South 18.4 mph - N/A   Clear
5:35 AM 38.5 °F 29.6 °F 33.1 °F 81% 29.58 in 10.0 mi South 16.1 mph - N/A   Clear
5:55 AM 38.8 °F 30.0 °F 33.3 °F 80% 29.58 in 10.0 mi South 16.1 mph - N/A   Clear
6:15 AM 39.2 °F 31.2 °F 33.4 °F 80% 29.58 in 10.0 mi South 13.8 mph - N/A   Clear
6:35 AM 39.0 °F 31.4 °F 33.6 °F 81% 29.59 in 10.0 mi South 12.7 mph - N/A   Clear
6:55 AM 39.4 °F 31.8 °F 33.8 °F 80% 29.59 in 10.0 mi SSW 12.7 mph - N/A   Scattered Clouds
7:15 AM 40.3 °F 33.9 °F 34.2 °F 79% 29.58 in 10.0 mi SSW 10.4 mph - N/A   Mostly Cloudy
7:35 AM 39.9 °F 33.4 °F 34.2 °F 80% 29.59 in 10.0 mi SW 10.4 mph - N/A   Overcast
7:55 AM 39.0 °F 32.8 °F 34.2 °F 83% 29.60 in 10.0 mi SW 9.2 mph - N/A   Scattered Clouds
8:15 AM 38.7 °F 31.8 °F 34.5 °F 85% 29.61 in 10.0 mi SW 10.4 mph - N/A   Scattered Clouds
8:35 AM 40.1 °F 32.7 °F 35.1 °F 82% 29.61 in 10.0 mi SSW 12.7 mph - N/A   Clear
8:55 AM 40.1 °F 32.4 °F 35.2 °F 83% 29.62 in 10.0 mi SW 13.8 mph - N/A   Clear
9:15 AM 40.1 °F 32.7 °F 35.6 °F 84% 29.62 in 10.0 mi SSW 12.7 mph - N/A   Clear
9:35 AM 41.5 °F 34.6 °F 36.3 °F 82% 29.62 in 10.0 mi SW 12.7 mph - N/A   Clear
9:55 AM 42.8 °F 35.1 °F 36.9 °F 80% 29.62 in 10.0 mi SSW 16.1 mph - N/A   Clear
10:15 AM 43.3 °F 36.1 °F 37.4 °F 80% 29.63 in 10.0 mi SW 15.0 mph - N/A   Scattered Clouds
10:35 AM 43.7 °F 36.6 °F 37.8 °F 80% 29.62 in 10.0 mi SW 15.0 mph 20.7 mph N/A   Clear
10:55 AM 43.3 °F 36.5 °F 38.1 °F 82% 29.62 in 10.0 mi WSW 13.8 mph 17.3 mph N/A   Clear
11:15 AM 43.3 °F 37.2 °F 38.3 °F 82% 29.62 in 10.0 mi WSW 11.5 mph - N/A   Scattered Clouds
11:35 AM 43.9 °F 37.5 °F 38.7 °F 82% 29.62 in 10.0 mi WSW 12.7 mph - N/A   Scattered Clouds
11:55 AM 44.1 °F 37.7 °F 37.6 °F 78% 29.61 in 10.0 mi West 12.7 mph - N/A   Clear
12:15 PM 44.6 °F 38.8 °F 37.2 °F 75% 29.61 in 10.0 mi WSW 11.5 mph - N/A   Clear
12:35 PM 45.9 °F 40.4 °F 37.9 °F 74% 29.60 in 10.0 mi West 11.5 mph - N/A   Clear
12:55 PM 46.4 °F 40.4 °F 37.4 °F 71% 29.60 in 10.0 mi West 13.8 mph 19.6 mph N/A   Clear
1:15 PM 46.0 °F 39.6 °F 37.2 °F 71% 29.61 in 10.0 mi West 15.0 mph - N/A   Clear
1:35 PM 46.2 °F 39.5 °F 37.8 °F 72% 29.61 in 10.0 mi West 16.1 mph - N/A   Clear
1:55 PM 45.9 °F 39.1 °F 37.8 °F 73% 29.62 in 10.0 mi West 16.1 mph - N/A   Clear
2:15 PM 45.9 °F 39.7 °F 37.2 °F 72% 29.62 in 10.0 mi West 13.8 mph 19.6 mph N/A   Clear
2:35 PM 45.5 °F 38.9 °F 36.7 °F 71% 29.62 in 10.0 mi West 15.0 mph 19.6 mph N/A   Clear
2:55 PM 45.0 °F 38.9 °F 36.5 °F 72% 29.64 in 10.0 mi West 12.7 mph 20.7 mph N/A   Clear
3:15 PM 44.6 °F 38.8 °F 36.9 °F 74% 29.65 in 10.0 mi West 11.5 mph - N/A   Clear
3:35 PM 43.7 °F 36.6 °F 36.5 °F 76% 29.66 in 10.0 mi West 15.0 mph - N/A   Clear
3:55 PM 42.8 °F 36.6 °F 36.9 °F 80% 29.67 in 10.0 mi West 11.5 mph 17.3 mph N/A   Clear
4:15 PM 41.9 °F 35.0 °F 35.6 °F 78% 29.68 in 10.0 mi West 12.7 mph 18.4 mph N/A   Clear
4:35 PM 40.1 °F 32.7 °F 35.1 °F 82% 29.69 in 10.0 mi West 12.7 mph - N/A   Clear
4:55 PM 38.3 °F 30.5 °F 32.9 °F 81% 29.70 in 10.0 mi West 12.7 mph - N/A   Clear
5:15 PM 37.0 °F 29.8 °F 32.4 °F 83% 29.71 in 10.0 mi West 10.4 mph - N/A   Clear
5:35 PM 36.0 °F 28.5 °F 32.2 °F 86% 29.73 in 10.0 mi West 10.4 mph - N/A   Clear
5:55 PM 35.6 °F 27.5 °F 32.0 °F 87% 29.74 in 10.0 mi West 11.5 mph - N/A   Clear
6:15 PM 34.7 °F 26.9 °F 31.6 °F 89% 29.74 in 10.0 mi West 10.4 mph - N/A   Scattered Clouds
6:35 PM 34.0 °F 26.0 °F 31.1 °F 89% 29.75 in 10.0 mi West 10.4 mph - N/A   Clear
6:55 PM 33.4 °F 25.9 °F 31.1 °F 91% 29.75 in 10.0 mi West 9.2 mph - N/A   Clear
7:15 PM 33.3 °F 26.4 °F 31.3 °F 92% 29.77 in 10.0 mi West 8.1 mph - N/A   Clear
7:35 PM 32.9 °F 25.9 °F 30.2 °F 90% 29.77 in 10.0 mi West 8.1 mph - N/A   Scattered Clouds
7:55 PM 32.0 °F 25.6 °F 29.1 °F 89% 29.78 in 10.0 mi West 6.9 mph - N/A   Clear
8:15 PM 32.0 °F 23.0 °F 28.4 °F 87% 29.79 in 10.0 mi West 11.5 mph - N/A   Clear
8:35 PM 31.8 °F 23.9 °F 28.2 °F 87% 29.79 in 10.0 mi West 9.2 mph - N/A   Clear
8:55 PM 31.5 °F 22.9 °F 28.2 °F 88% 29.79 in 10.0 mi West 10.4 mph - N/A   Clear
9:15 PM 30.7 °F 23.3 °F 27.9 °F 89% 29.79 in 10.0 mi West 8.1 mph - N/A   Clear
9:35 PM 30.4 °F 22.9 °F 27.5 °F 89% 29.79 in 10.0 mi West 8.1 mph - N/A   Clear
9:55 PM 30.2 °F 23.4 °F 27.0 °F 88% 29.79 in 10.0 mi West 6.9 mph - N/A   Clear
10:15 PM 30.0 °F 22.4 °F 26.6 °F 87% 29.80 in 10.0 mi West 8.1 mph - N/A   Clear
10:35 PM 29.5 °F 22.5 °F 26.6 °F 89% 29.81 in 10.0 mi West 6.9 mph - N/A   Clear
10:55 PM 28.6 °F 22.4 °F 26.2 °F 91% 29.81 in 10.0 mi West 5.8 mph - N/A   Clear
11:15 PM 28.4 °F 22.2 °F 26.1 °F 91% 29.81 in 10.0 mi West 5.8 mph - N/A   Clear
11:35 PM 28.8 °F 22.6 °F 25.7 °F 88% 29.81 in 10.0 mi West 5.8 mph - N/A   Clear
11:55 PM 28.4 °F 23.3 °F 25.7 °F 90% 29.80 in 10.0 mi West 4.6 mph - N/A   Clear